Watford City, North Dakota
Current Conditions -  °F | °C
As of 3:52 PM on Thursday 27 Nov 2014 (Local Time) from KISN Reporting Station
Overcast Overcast  
Wind Chill:   Ceiling: 1400
Heat Index: 20°   Visibility: 10mi
Dew Point: 15°   Wind: 10mph
Humidity: 81%   Direction: 130°SE
Pressure: 29.86"   Gusts: NA
Location:  47.8°N, 103.28°W
Report Text: KISN 272152Z AUTO 13009KT 10SM OVC014 M07/M09 A2986 RMK AO2 SLP153 T10671094
Loading
Personal Weather Stations






























Interactive Weather Map New forecast layout! Learn more

10-Day Weather Forecast

Advertisements
Track Severe Weather on mobile